Terminal Aerodrome Forecast
Issued by NWS

Home | Current Version | Previous Version | Text Only | Print | Product List | Glossary On
Versions: 1 2 3 4 5 6 7 8 9 10 11 12 13
000
FTUS46 KPQR 161749
TAFONP
TAF
KONP 161749Z 1618/1718 VRB03KT P6SM SCT025 OVC050
     FM170300 VRB03KT 5SM BR OVC050
     FM170800 13008KT 3SM BR SCT020 OVC035=

USA.gov is the U.S. government's official web portal to all federal, state and local government web resources and services.